createdAt,value
2023-04-30T00:00:11.275Z,21.45
2023-04-30T00:03:00.439Z,20.48
2023-04-30T00:05:30.946Z,20.55
2023-04-30T00:07:59.578Z,20.60
2023-04-30T00:10:28.463Z,20.98
2023-04-30T00:12:57.297Z,19.73
2023-04-30T00:15:26.281Z,20.70
2023-04-30T00:17:55.004Z,24.33
2023-04-30T00:20:23.981Z,26.65
2023-04-30T00:22:54.050Z,26.00
2023-04-30T00:25:24.693Z,23.52
2023-04-30T00:27:53.477Z,23.70
2023-04-30T00:30:22.435Z,23.17
2023-04-30T00:32:51.154Z,24.75
2023-04-30T00:35:20.156Z,24.23
2023-04-30T00:37:48.973Z,23.50
2023-04-30T00:40:19.486Z,21.40
2023-04-30T00:42:48.720Z,21.45
2023-04-30T00:45:22.041Z,21.50
2023-04-30T00:47:51.393Z,20.73
2023-04-30T00:50:21.212Z,19.38
2023-04-30T00:52:50.068Z,19.95
2023-04-30T00:55:21.623Z,23.60
2023-04-30T00:57:50.531Z,23.77
2023-04-30T01:00:20.269Z,19.23
2023-04-30T01:02:50.286Z,20.08
2023-04-30T01:05:19.328Z,20.95
2023-04-30T01:07:48.153Z,19.63
2023-04-30T01:10:19.925Z,22.10
2023-04-30T01:12:57.538Z,20.10
2023-04-30T01:15:37.576Z,18.65
2023-04-30T01:18:14.840Z,21.95
2023-04-30T01:20:51.596Z,17.27
2023-04-30T01:23:43.438Z,17.85
2023-04-30T01:26:29.563Z,20.50
2023-04-30T01:29:04.000Z,20.40
2023-04-30T01:31:32.996Z,18.13
2023-04-30T01:34:01.693Z,17.20
2023-04-30T01:36:52.152Z,20.08
2023-04-30T01:39:57.886Z,20.30
2023-04-30T01:42:38.076Z,19.73
2023-04-30T01:45:28.546Z,18.42
2023-04-30T01:48:09.811Z,18.48
2023-04-30T01:50:49.481Z,18.60
2023-04-30T01:53:29.830Z,19.67
2023-04-30T01:56:03.598Z,17.92
2023-04-30T01:58:34.794Z,20.98
2023-04-30T02:01:05.008Z,19.40
2023-04-30T02:03:34.565Z,19.42
2023-04-30T02:06:04.073Z,19.23
2023-04-30T02:08:33.027Z,21.25
2023-04-30T02:11:01.632Z,19.42
2023-04-30T02:13:30.723Z,19.02
2023-04-30T02:15:59.575Z,20.15
2023-04-30T02:18:29.863Z,18.25
2023-04-30T02:20:58.530Z,20.48
2023-04-30T02:23:27.484Z,21.10
2023-04-30T02:25:56.143Z,22.08
2023-04-30T02:28:25.158Z,20.80
2023-04-30T02:30:53.784Z,19.73
2023-04-30T02:33:22.695Z,20.58
2023-04-30T02:35:52.720Z,18.75
2023-04-30T02:38:22.257Z,17.65
2023-04-30T02:40:51.019Z,17.58
2023-04-30T02:43:20.113Z,17.30
2023-04-30T02:45:49.154Z,16.95
2023-04-30T02:48:18.405Z,17.98
2023-04-30T02:50:47.322Z,17.58
2023-04-30T02:53:18.131Z,20.85
2023-04-30T02:55:47.306Z,17.90
2023-04-30T02:58:16.298Z,16.70
2023-04-30T03:00:44.937Z,18.58
2023-04-30T03:03:14.542Z,18.40
2023-04-30T03:05:43.222Z,17.83
2023-04-30T03:08:12.926Z,19.75
2023-04-30T03:10:43.028Z,17.33
2023-04-30T03:13:11.901Z,16.85
2023-04-30T03:15:40.635Z,17.90
2023-04-30T03:18:09.612Z,19.05
2023-04-30T03:20:38.429Z,21.15
2023-04-30T03:23:07.451Z,18.83
2023-04-30T03:25:36.077Z,17.73
2023-04-30T03:28:06.612Z,18.88
2023-04-30T03:30:35.303Z,16.17
2023-04-30T03:33:06.647Z,17.10
2023-04-30T03:35:35.864Z,16.30
2023-04-30T03:38:05.190Z,17.10
2023-04-30T03:40:33.826Z,17.55
2023-04-30T03:43:02.783Z,17.88
2023-04-30T03:45:32.874Z,17.75
2023-04-30T03:48:01.979Z,15.65
2023-04-30T03:50:30.974Z,16.33
2023-04-30T03:52:59.930Z,17.77
2023-04-30T03:55:28.917Z,17.65
2023-04-30T03:57:58.479Z,15.15
2023-04-30T04:00:27.603Z,15.00
2023-04-30T04:03:00.367Z,17.45
2023-04-30T04:05:30.320Z,15.68
2023-04-30T04:07:59.207Z,16.83
2023-04-30T04:10:27.991Z,14.48
2023-04-30T04:12:57.477Z,14.32
2023-04-30T04:15:26.157Z,16.98
2023-04-30T04:17:56.892Z,12.88
2023-04-30T04:20:25.741Z,13.85
2023-04-30T04:22:54.880Z,11.82
2023-04-30T04:25:25.246Z,15.02
2023-04-30T04:27:54.368Z,12.43
2023-04-30T04:30:22.970Z,12.32
2023-04-30T04:32:53.984Z,10.35
2023-04-30T04:35:24.317Z,10.20
2023-04-30T04:37:53.341Z,11.93
2023-04-30T04:40:22.113Z,12.07
2023-04-30T04:42:52.481Z,13.57
2023-04-30T04:45:21.670Z,15.52
2023-04-30T04:47:52.243Z,14.27
2023-04-30T04:50:21.299Z,15.63
2023-04-30T04:52:51.714Z,13.30
2023-04-30T04:55:20.629Z,11.45
2023-04-30T04:57:49.624Z,11.30
2023-04-30T05:00:19.379Z,15.07
2023-04-30T05:02:48.844Z,15.02
2023-04-30T05:05:18.208Z,14.90
2023-04-30T05:07:47.239Z,14.43
2023-04-30T05:10:17.666Z,15.95
2023-04-30T05:12:46.581Z,13.18
2023-04-30T05:15:15.394Z,11.63
2023-04-30T05:17:44.377Z,13.75
2023-04-30T05:20:14.547Z,12.68
2023-04-30T05:22:43.482Z,13.55
2023-04-30T05:25:12.243Z,13.68
2023-04-30T05:27:42.657Z,12.60
2023-04-30T05:30:12.874Z,16.30
2023-04-30T05:32:41.824Z,12.20
2023-04-30T05:35:11.261Z,12.25
2023-04-30T05:37:40.160Z,15.50
2023-04-30T05:40:10.559Z,13.43
2023-04-30T05:42:40.942Z,14.30
2023-04-30T05:45:12.382Z,13.32
2023-04-30T05:47:41.622Z,15.43
2023-04-30T05:50:11.476Z,15.73
2023-04-30T05:52:40.483Z,16.00
2023-04-30T05:55:11.065Z,15.35
2023-04-30T05:57:40.117Z,16.88
2023-04-30T06:00:12.550Z,14.25
2023-04-30T06:02:41.970Z,19.02
2023-04-30T06:05:12.874Z,17.05
2023-04-30T06:07:43.660Z,17.15
2023-04-30T06:10:12.993Z,16.35
2023-04-30T06:12:42.044Z,18.58
2023-04-30T06:15:12.586Z,19.77
2023-04-30T06:17:41.697Z,18.98
2023-04-30T06:20:11.521Z,21.95
2023-04-30T06:22:41.233Z,21.42
2023-04-30T06:25:11.065Z,22.02
2023-04-30T06:27:39.976Z,22.92
2023-04-30T06:30:12.006Z,21.42
2023-04-30T06:32:41.492Z,19.40
2023-04-30T06:35:11.105Z,21.17
2023-04-30T06:37:40.491Z,17.80
2023-04-30T06:40:10.458Z,17.60
2023-04-30T06:42:39.419Z,19.00
2023-04-30T06:45:09.742Z,16.73
2023-04-30T06:47:41.835Z,16.48
2023-04-30T06:50:11.477Z,16.58
2023-04-30T06:52:40.662Z,15.65
2023-04-30T06:55:09.925Z,14.90
2023-04-30T06:57:39.910Z,9.23
2023-04-30T07:00:09.954Z,10.63
2023-04-30T07:02:40.394Z,9.55
2023-04-30T07:05:11.282Z,11.55
2023-04-30T07:07:40.276Z,12.48
2023-04-30T07:10:09.835Z,8.35
2023-04-30T07:12:38.791Z,11.93
2023-04-30T07:15:09.176Z,11.00
2023-04-30T07:17:41.842Z,8.43
2023-04-30T07:20:13.119Z,8.23
2023-04-30T07:22:44.496Z,7.65
2023-04-30T07:25:13.321Z,7.38
2023-04-30T07:27:42.534Z,8.05
2023-04-30T07:30:11.566Z,8.07
2023-04-30T07:32:42.807Z,9.80
2023-04-30T07:35:11.733Z,10.63
2023-04-30T07:37:41.637Z,6.40
2023-04-30T07:40:22.018Z,8.77
2023-04-30T07:42:57.870Z,6.82
2023-04-30T07:45:26.631Z,7.32
2023-04-30T07:47:56.986Z,6.63
2023-04-30T07:50:25.684Z,6.57
2023-04-30T07:52:54.763Z,7.88
2023-04-30T07:55:23.565Z,7.72
2023-04-30T07:57:52.491Z,9.63
2023-04-30T08:00:21.431Z,6.90
2023-04-30T08:02:50.861Z,7.50
2023-04-30T08:05:21.502Z,5.00
2023-04-30T08:07:50.486Z,7.70
2023-04-30T08:10:19.211Z,7.40
2023-04-30T08:12:48.124Z,4.63
2023-04-30T08:15:16.820Z,5.53
2023-04-30T08:17:45.872Z,6.22
2023-04-30T08:20:14.675Z,6.00
2023-04-30T08:22:45.795Z,6.05
2023-04-30T08:25:15.016Z,7.15
2023-04-30T08:27:43.985Z,8.18
2023-04-30T08:30:13.265Z,7.30
2023-04-30T08:32:42.542Z,5.80
2023-04-30T08:35:11.801Z,7.10
2023-04-30T08:37:40.773Z,6.03
2023-04-30T08:40:14.053Z,5.88
2023-04-30T08:42:51.435Z,4.28
2023-04-30T08:45:20.962Z,7.28
2023-04-30T08:47:51.538Z,7.50
2023-04-30T08:50:20.631Z,5.00
2023-04-30T08:52:49.959Z,4.05
2023-04-30T08:55:20.130Z,3.83
2023-04-30T08:57:49.054Z,4.53
2023-04-30T09:00:18.017Z,5.30
2023-04-30T09:02:49.375Z,5.25
2023-04-30T09:05:18.121Z,5.03
2023-04-30T09:10:22.997Z,5.50
2023-04-30T09:13:03.020Z,5.95
2023-04-30T09:15:33.826Z,8.75
2023-04-30T09:18:12.349Z,5.32
2023-04-30T09:20:57.291Z,2.70
2023-04-30T09:23:27.042Z,4.57
2023-04-30T09:25:57.982Z,4.95
2023-04-30T09:28:28.829Z,3.90
2023-04-30T09:30:58.981Z,2.92
2023-04-30T09:33:28.165Z,4.53
2023-04-30T09:35:57.092Z,3.13
2023-04-30T09:38:31.258Z,6.65
2023-04-30T09:41:03.106Z,4.70
2023-04-30T09:43:32.577Z,4.50
2023-04-30T09:46:01.571Z,3.90
2023-04-30T09:48:30.542Z,4.85
2023-04-30T09:50:59.548Z,2.58
2023-04-30T09:53:29.253Z,2.55
2023-04-30T09:56:07.984Z,2.47
2023-04-30T09:58:39.333Z,6.70
2023-04-30T10:01:11.428Z,2.90
2023-04-30T10:03:43.808Z,4.20
2023-04-30T10:06:15.683Z,4.05
2023-04-30T10:08:47.973Z,5.10
2023-04-30T10:11:22.765Z,4.97
2023-04-30T10:13:59.333Z,4.35
2023-04-30T10:16:40.457Z,7.40
2023-04-30T10:19:15.711Z,4.97
2023-04-30T10:21:47.436Z,5.13
2023-04-30T10:24:19.476Z,2.60
2023-04-30T10:26:51.055Z,6.28
2023-04-30T10:29:20.677Z,4.18
2023-04-30T10:31:52.796Z,3.35
2023-04-30T10:34:34.436Z,3.53
2023-04-30T10:37:12.267Z,3.92
2023-04-30T10:39:41.873Z,2.25
2023-04-30T10:42:13.306Z,2.30
2023-04-30T10:44:42.661Z,3.47
2023-04-30T10:47:11.626Z,1.73
2023-04-30T10:49:43.096Z,1.67
2023-04-30T10:52:12.843Z,4.20
2023-04-30T10:54:50.536Z,3.45
2023-04-30T10:57:23.196Z,2.17
2023-04-30T11:00:25.684Z,2.88
2023-04-30T11:03:00.802Z,2.60
2023-04-30T11:05:38.798Z,5.15
2023-04-30T11:08:12.601Z,3.70
2023-04-30T11:11:00.129Z,2.95
2023-04-30T11:13:30.491Z,2.30
2023-04-30T11:16:05.351Z,3.80
2023-04-30T11:18:34.589Z,4.55
2023-04-30T11:21:04.999Z,3.10
2023-04-30T11:23:40.303Z,3.42
2023-04-30T11:26:11.533Z,4.32
2023-04-30T11:28:56.678Z,2.85
2023-04-30T11:31:35.113Z,2.95
2023-04-30T11:34:04.568Z,4.07
2023-04-30T11:36:35.041Z,4.70
2023-04-30T11:39:08.024Z,5.28
2023-04-30T11:41:42.715Z,2.83
2023-04-30T11:44:27.181Z,5.18
2023-04-30T11:46:56.775Z,4.22
2023-04-30T11:49:25.615Z,2.95
2023-04-30T11:51:54.863Z,3.83
2023-04-30T11:54:24.137Z,2.92
2023-04-30T11:56:53.206Z,5.20
2023-04-30T11:59:21.930Z,4.63
2023-04-30T12:01:52.616Z,3.72
2023-04-30T12:04:21.943Z,2.80
2023-04-30T12:06:51.563Z,4.22
2023-04-30T12:09:20.277Z,2.92
2023-04-30T12:11:49.906Z,2.70
2023-04-30T12:14:18.665Z,5.65
2023-04-30T12:16:53.246Z,3.80
2023-04-30T12:19:25.279Z,4.57
2023-04-30T12:21:55.782Z,3.47
2023-04-30T12:24:28.790Z,2.50
2023-04-30T12:27:01.972Z,2.70
2023-04-30T12:29:30.803Z,3.47
2023-04-30T12:32:01.389Z,4.22
2023-04-30T12:34:33.821Z,4.70
2023-04-30T12:37:03.677Z,2.63
2023-04-30T12:39:35.380Z,4.47
2023-04-30T12:42:05.004Z,3.40
2023-04-30T12:44:44.013Z,5.45
2023-04-30T12:47:15.584Z,2.53
2023-04-30T12:49:47.092Z,4.20
2023-04-30T12:52:16.833Z,4.43
2023-04-30T12:54:45.509Z,3.42
2023-04-30T12:57:14.683Z,4.70
2023-04-30T13:00:00.928Z,3.80
2023-04-30T13:02:32.299Z,3.38
2023-04-30T13:05:01.399Z,2.67
2023-04-30T13:07:39.606Z,2.88
2023-04-30T13:10:09.739Z,3.58
2023-04-30T13:12:38.697Z,3.97
2023-04-30T13:15:08.749Z,2.03
2023-04-30T13:17:39.617Z,2.47
2023-04-30T13:20:10.755Z,2.75
2023-04-30T13:22:39.744Z,4.20
2023-04-30T13:25:09.547Z,4.55
2023-04-30T13:27:38.567Z,3.10
2023-04-30T13:30:09.167Z,2.33
2023-04-30T13:32:39.548Z,4.53
2023-04-30T13:35:10.343Z,1.63
2023-04-30T13:37:39.937Z,2.20
2023-04-30T13:40:10.378Z,2.78
2023-04-30T13:42:42.583Z,2.97
2023-04-30T13:45:12.678Z,2.83
2023-04-30T13:47:43.196Z,2.00
2023-04-30T13:50:13.273Z,3.45
2023-04-30T13:52:42.302Z,3.10
2023-04-30T13:55:11.395Z,3.72
2023-04-30T13:57:40.421Z,5.30
2023-04-30T14:00:10.857Z,3.40
2023-04-30T14:02:40.013Z,2.15
2023-04-30T14:05:11.247Z,3.92
2023-04-30T14:07:40.152Z,4.22
2023-04-30T14:10:09.972Z,3.80
2023-04-30T14:12:38.899Z,3.22
2023-04-30T14:15:08.863Z,2.97
2023-04-30T14:17:37.954Z,3.03
2023-04-30T14:20:11.336Z,3.25
2023-04-30T14:22:40.522Z,1.63
2023-04-30T14:25:10.832Z,4.38
2023-04-30T14:27:42.106Z,3.28
2023-04-30T14:30:11.926Z,2.33
2023-04-30T14:32:40.944Z,3.40
2023-04-30T14:35:11.597Z,4.20
2023-04-30T14:37:40.590Z,1.98
2023-04-30T14:40:11.829Z,2.58
2023-04-30T14:42:40.826Z,2.75
2023-04-30T14:45:11.512Z,2.17
2023-04-30T14:47:40.780Z,2.53
2023-04-30T14:50:11.931Z,4.82
2023-04-30T14:52:42.183Z,2.13
2023-04-30T14:55:11.118Z,3.78
2023-04-30T14:57:41.052Z,3.40
2023-04-30T15:00:12.144Z,2.45
2023-04-30T15:02:41.207Z,2.92
2023-04-30T15:05:12.213Z,2.92
2023-04-30T15:07:41.140Z,3.58
2023-04-30T15:10:11.463Z,1.85
2023-04-30T15:12:40.555Z,2.30
2023-04-30T15:15:10.541Z,1.70
2023-04-30T15:17:39.670Z,3.22
2023-04-30T15:20:11.541Z,2.80
2023-04-30T15:22:40.737Z,4.00
2023-04-30T15:25:10.563Z,2.60
2023-04-30T15:27:41.317Z,4.07
2023-04-30T15:30:11.459Z,2.60
2023-04-30T15:32:40.583Z,5.38
2023-04-30T15:35:11.330Z,3.10
2023-04-30T15:37:40.228Z,2.30
2023-04-30T15:40:14.189Z,1.85
2023-04-30T15:42:43.224Z,2.55
2023-04-30T15:45:12.409Z,3.25
2023-04-30T15:47:41.813Z,2.88
2023-04-30T15:50:12.651Z,2.63
2023-04-30T15:52:41.713Z,2.63
2023-04-30T15:55:11.375Z,4.03
2023-04-30T15:57:40.330Z,2.15
2023-04-30T16:00:11.118Z,2.47
2023-04-30T16:02:43.282Z,2.83
2023-04-30T16:05:13.386Z,2.25
2023-04-30T16:07:43.871Z,3.25
2023-04-30T16:10:13.270Z,2.53
2023-04-30T16:12:42.398Z,3.85
2023-04-30T16:15:12.551Z,4.07
2023-04-30T16:17:41.640Z,3.78
2023-04-30T16:20:13.308Z,3.13
2023-04-30T16:22:42.551Z,2.63
2023-04-30T16:25:12.039Z,3.75
2023-04-30T16:27:41.168Z,4.85
2023-04-30T16:30:11.309Z,6.82
2023-04-30T16:32:40.388Z,4.88
2023-04-30T16:35:10.602Z,4.03
2023-04-30T16:37:41.160Z,4.07
2023-04-30T16:40:11.443Z,5.38
2023-04-30T16:42:40.396Z,5.05
2023-04-30T16:45:10.792Z,3.75
2023-04-30T16:47:40.472Z,3.78
2023-04-30T16:50:10.487Z,2.70
2023-04-30T16:52:40.770Z,4.72
2023-04-30T16:55:10.364Z,3.95
2023-04-30T16:57:39.294Z,5.00
2023-04-30T17:00:14.242Z,3.10
2023-04-30T17:02:45.675Z,4.38
2023-04-30T17:05:14.963Z,2.90
2023-04-30T17:07:45.735Z,3.33
2023-04-30T17:10:15.049Z,2.28
2023-04-30T17:12:44.454Z,6.43
2023-04-30T17:15:13.387Z,2.50
2023-04-30T17:17:42.399Z,3.58
2023-04-30T17:20:12.428Z,3.92
2023-04-30T17:22:41.403Z,5.75
2023-04-30T17:25:12.527Z,4.22
2023-04-30T17:27:41.499Z,3.20
2023-04-30T17:30:10.980Z,4.43
2023-04-30T17:32:40.030Z,4.05
2023-04-30T17:35:09.203Z,4.95
2023-04-30T17:37:38.211Z,3.72
2023-04-30T17:40:09.067Z,2.70
2023-04-30T17:42:39.985Z,3.00
2023-04-30T17:45:09.937Z,6.28
2023-04-30T17:47:39.741Z,4.13
2023-04-30T17:50:09.714Z,4.30
2023-04-30T17:52:39.357Z,6.20
2023-04-30T17:55:09.813Z,4.13
2023-04-30T17:57:40.119Z,6.40
2023-04-30T18:00:10.460Z,7.00
2023-04-30T18:02:43.319Z,6.07
2023-04-30T18:05:12.856Z,7.47
2023-04-30T18:07:41.796Z,6.60
2023-04-30T18:10:11.064Z,6.63
2023-04-30T18:12:42.029Z,4.25
2023-04-30T18:15:13.181Z,6.80
2023-04-30T18:17:42.665Z,10.95
2023-04-30T18:20:13.005Z,6.97
2023-04-30T18:22:43.546Z,7.00
2023-04-30T18:25:14.103Z,6.03
2023-04-30T18:27:44.908Z,9.23
2023-04-30T18:30:14.097Z,6.97
2023-04-30T18:32:44.265Z,6.80
2023-04-30T18:35:13.097Z,7.45
2023-04-30T18:37:42.080Z,5.07
2023-04-30T18:40:11.890Z,7.07
2023-04-30T18:42:40.868Z,7.53
2023-04-30T18:45:12.214Z,7.70
2023-04-30T18:47:41.337Z,7.20
2023-04-30T18:50:15.322Z,7.25
2023-04-30T18:52:45.226Z,8.13
2023-04-30T18:55:14.446Z,6.45
2023-04-30T18:57:43.835Z,9.40
2023-04-30T19:00:15.321Z,6.93
2023-04-30T19:02:44.595Z,8.43
2023-04-30T19:05:14.231Z,9.10
2023-04-30T19:07:43.346Z,7.80
2023-04-30T19:10:12.313Z,6.30
2023-04-30T19:12:43.920Z,8.00
2023-04-30T19:15:15.627Z,7.25
2023-04-30T19:17:44.669Z,10.43
2023-04-30T19:20:14.287Z,11.75
2023-04-30T19:22:43.658Z,7.72
2023-04-30T19:25:12.627Z,11.00
2023-04-30T19:27:41.609Z,8.73
2023-04-30T19:30:11.661Z,9.00
2023-04-30T19:32:42.122Z,6.82
2023-04-30T19:35:11.454Z,8.27
2023-04-30T19:37:40.414Z,7.25
2023-04-30T19:40:11.870Z,7.03
2023-04-30T19:42:41.189Z,7.03
2023-04-30T19:45:11.576Z,7.57
2023-04-30T19:47:41.982Z,8.38
2023-04-30T19:50:11.534Z,6.70
2023-04-30T19:52:40.479Z,7.72
2023-04-30T19:55:10.328Z,8.20
2023-04-30T19:57:39.304Z,7.28
2023-04-30T20:00:12.991Z,6.65
2023-04-30T20:02:43.738Z,7.95
2023-04-30T20:05:12.558Z,8.10
2023-04-30T20:07:42.241Z,7.80
2023-04-30T20:10:11.605Z,8.75
2023-04-30T20:12:40.595Z,7.32
2023-04-30T20:15:10.392Z,7.32
2023-04-30T20:17:39.395Z,7.93
2023-04-30T20:20:10.992Z,7.40
2023-04-30T20:22:40.010Z,8.85
2023-04-30T20:25:10.090Z,8.15
2023-04-30T20:27:39.033Z,10.15
2023-04-30T20:30:10.944Z,9.50
2023-04-30T20:32:40.461Z,12.43
2023-04-30T20:35:11.182Z,10.15
2023-04-30T20:37:40.299Z,9.80
2023-04-30T20:40:10.642Z,11.73
2023-04-30T20:42:40.776Z,10.02
2023-04-30T20:45:11.472Z,11.32
2023-04-30T20:47:41.612Z,12.98
2023-04-30T20:50:12.165Z,13.20
2023-04-30T20:52:41.435Z,12.90
2023-04-30T20:55:11.109Z,14.60
2023-04-30T20:57:40.238Z,15.32
2023-04-30T21:00:10.661Z,16.75
2023-04-30T21:02:39.823Z,17.45
2023-04-30T21:05:11.223Z,19.25
2023-04-30T21:07:40.324Z,19.20
2023-04-30T21:10:09.875Z,18.33
2023-04-30T21:12:38.881Z,16.88
2023-04-30T21:15:09.189Z,18.80
2023-04-30T21:17:38.321Z,17.83
2023-04-30T21:20:08.878Z,19.48
2023-04-30T21:22:40.696Z,18.33
2023-04-30T21:25:12.256Z,19.15
2023-04-30T21:27:41.270Z,19.35
2023-04-30T21:30:10.852Z,20.85
2023-04-30T21:32:39.917Z,24.88
2023-04-30T21:35:09.066Z,22.83
2023-04-30T21:37:39.379Z,24.52
2023-04-30T21:40:09.636Z,25.80
2023-04-30T21:42:38.601Z,22.38
2023-04-30T21:45:09.692Z,26.77
2023-04-30T21:47:38.696Z,24.88
2023-04-30T21:50:09.492Z,28.42
2023-04-30T21:52:39.774Z,27.45
2023-04-30T21:55:10.076Z,27.70
2023-04-30T21:57:39.098Z,25.23
2023-04-30T22:00:14.351Z,26.67
2023-04-30T22:02:50.708Z,31.90
2023-04-30T22:05:21.207Z,28.95
2023-04-30T22:07:51.593Z,27.88
2023-04-30T22:10:20.554Z,24.58
2023-04-30T22:12:49.541Z,27.48
2023-04-30T22:15:18.165Z,27.58
2023-04-30T22:17:47.702Z,28.17
2023-04-30T22:20:16.747Z,22.95
2023-04-30T22:22:45.720Z,28.05
2023-04-30T22:25:17.615Z,22.48
2023-04-30T22:27:48.498Z,22.42
2023-04-30T22:30:17.534Z,26.85
2023-04-30T22:32:46.504Z,23.08
2023-04-30T22:35:17.576Z,20.83
2023-04-30T22:37:46.654Z,24.23
2023-04-30T22:40:17.940Z,22.33
2023-04-30T22:42:47.024Z,19.38
2023-04-30T22:45:16.309Z,19.38
2023-04-30T22:47:45.890Z,19.35
2023-04-30T22:50:14.625Z,17.50
2023-04-30T22:52:43.712Z,16.92
2023-04-30T22:55:12.486Z,16.00
2023-04-30T22:57:42.818Z,16.80
2023-04-30T23:00:13.079Z,17.33
2023-04-30T23:02:43.727Z,15.77
2023-04-30T23:05:12.892Z,17.63
2023-04-30T23:07:42.038Z,13.75
2023-04-30T23:10:12.053Z,13.73
2023-04-30T23:12:42.481Z,12.52
2023-04-30T23:15:11.577Z,13.70
2023-04-30T23:17:40.637Z,13.30
2023-04-30T23:20:10.883Z,12.00
2023-04-30T23:22:39.949Z,11.30
2023-04-30T23:25:09.371Z,10.27
2023-04-30T23:27:38.373Z,8.73
2023-04-30T23:30:10.899Z,8.07
2023-04-30T23:32:39.954Z,8.75
2023-04-30T23:35:10.145Z,10.48
2023-04-30T23:37:39.070Z,11.38
2023-04-30T23:40:10.240Z,10.70
2023-04-30T23:42:39.382Z,9.07
2023-04-30T23:45:11.240Z,10.38
2023-04-30T23:47:40.168Z,10.95
2023-04-30T23:50:10.748Z,10.82
2023-04-30T23:52:39.677Z,12.52
2023-04-30T23:55:09.660Z,11.38
2023-04-30T23:57:38.611Z,9.82
